Hamlet, Nebraska
Current Conditions -  °F | °C
As of 4:17 PM on Monday 24 Nov 2014 (Local Time) from KIML Reporting Station
Light Snow Light Snow  
Wind Chill: 25°   Ceiling: 2000
Heat Index: 35°   Visibility: 4mi
Dew Point: 31°   Wind: 17mph
Humidity: 85%   Direction: 320°NW
Pressure: 30.01"   Gusts: 26mph
Location:  40.38°N, 101.23°W
Report Text: KIML 242217Z AUTO 32015G23KT 4SM -SN BR FEW009 OVC020 02/M01 A3001 RMK AO2 PK WND 33027/2154 RAE08SNB08 P0001 T00171006
Loading
Personal Weather Stations






























Interactive Weather Map New forecast layout! Learn more

10-Day Weather Forecast

Advertisements
Track Severe Weather on mobile